createdAt,value
2018-04-23T00:00:52.183Z,100705.77
2018-04-23T00:05:54.773Z,100705.77
2018-04-23T00:10:57.239Z,100693.83
2018-04-23T00:15:59.748Z,100673.97
2018-04-23T00:21:02.320Z,100668.42
2018-04-23T00:26:04.803Z,100667.53
2018-04-23T00:31:08.340Z,100657.03
2018-04-23T00:36:10.880Z,100654.21
2018-04-23T00:41:13.431Z,100645.24
2018-04-23T00:46:16.176Z,100639.53
2018-04-23T00:51:18.716Z,100638.41
2018-04-23T00:56:21.204Z,100652.34
2018-04-23T01:01:23.690Z,100632.08
2018-04-23T01:06:26.248Z,100633.02
2018-04-23T01:11:28.795Z,100620.97
2018-04-23T01:16:31.934Z,100633.39
2018-04-23T01:21:34.439Z,100624.14
2018-04-23T01:26:37.043Z,100627.10
2018-04-23T01:31:39.597Z,100626.42
2018-04-23T01:36:42.113Z,100631.34
2018-04-23T01:41:44.627Z,100638.59
2018-04-23T01:46:47.109Z,100637.82
2018-04-23T01:51:49.586Z,100627.04
2018-04-23T01:56:52.057Z,100625.61
2018-04-23T02:01:54.554Z,100628.83
2018-04-23T02:06:57.008Z,100629.82
2018-04-23T02:11:59.544Z,100635.48
2018-04-23T02:17:02.025Z,100635.05
2018-04-23T02:22:04.483Z,100643.91
2018-04-23T02:27:07.059Z,100638.52
2018-04-23T02:32:09.583Z,100639.86
2018-04-23T02:37:12.109Z,100653.11
2018-04-23T02:42:14.662Z,100655.21
2018-04-23T02:47:17.182Z,100659.09
2018-04-23T02:52:19.645Z,100662.34
2018-04-23T02:57:22.190Z,100664.45
2018-04-23T03:02:24.654Z,100658.74
2018-04-23T03:07:27.138Z,100656.59
2018-04-23T03:12:29.613Z,100660.37
2018-04-23T03:17:32.080Z,100670.80
2018-04-23T03:22:34.544Z,100673.63
2018-04-23T03:27:37.049Z,100671.39
2018-04-23T03:32:39.605Z,100672.58
2018-04-23T03:37:42.111Z,100677.60
2018-04-23T03:42:44.700Z,100676.55
2018-04-23T03:47:47.212Z,100682.98
2018-04-23T03:52:49.681Z,100682.20
2018-04-23T03:57:52.165Z,100689.13
2018-04-23T04:02:54.691Z,100693.08
2018-04-23T04:07:57.187Z,100690.90
2018-04-23T04:13:11.515Z,100690.13
2018-04-23T04:18:34.750Z,100693.83
2018-04-23T04:23:37.261Z,100700.02
2018-04-23T04:28:39.776Z,100704.89
2018-04-23T04:33:43.149Z,100712.77
2018-04-23T04:38:45.628Z,100719.23
2018-04-23T04:43:48.097Z,100713.28
2018-04-23T04:48:50.550Z,100716.20
2018-04-23T04:53:53.003Z,100720.38
2018-04-23T04:58:57.627Z,100719.91
2018-04-23T05:04:02.418Z,100717.92
2018-04-23T05:09:05.074Z,100720.45
2018-04-23T05:14:07.672Z,100738.06
2018-04-23T05:19:10.231Z,100735.41
2018-04-23T05:24:12.747Z,100739.47
2018-04-23T05:29:15.232Z,100742.17
2018-04-23T05:34:17.681Z,100741.03
2018-04-23T05:39:20.150Z,100747.00
2018-04-23T05:44:22.930Z,100750.41
2018-04-23T05:49:25.407Z,100758.20
2018-04-23T05:54:27.917Z,100761.70
2018-04-23T05:59:30.495Z,100787.22
2018-04-23T06:04:32.950Z,100784.72
2018-04-23T06:09:35.399Z,100782.75
2018-04-23T06:14:37.990Z,100775.28
2018-04-23T06:19:40.607Z,100771.12
2018-04-23T06:24:43.225Z,100765.77
2018-04-23T06:29:45.776Z,100769.48
2018-04-23T06:34:48.335Z,100761.83
2018-04-23T06:39:51.028Z,100757.62
2018-04-23T06:44:54.117Z,100742.78
2018-04-23T06:49:56.581Z,100735.69
2018-04-23T06:54:59.078Z,100718.61
2018-04-23T07:00:01.545Z,100719.45
2018-04-23T07:05:04.047Z,100708.02
2018-04-23T07:10:06.948Z,100720.08
2018-04-23T07:15:09.621Z,100704.35
2018-04-23T07:20:12.137Z,100704.58
2018-04-23T07:25:14.630Z,100702.80
2018-04-23T07:30:17.104Z,100703.97
2018-04-23T07:35:19.799Z,100711.25
2018-04-23T07:40:22.884Z,100712.22
2018-04-23T07:45:25.359Z,100724.67
2018-04-23T07:50:27.930Z,100728.97
2018-04-23T07:55:30.483Z,100721.40
2018-04-23T08:00:33.004Z,100730.73
2018-04-23T08:05:35.465Z,100735.99
2018-04-23T08:10:38.066Z,100735.42
2018-04-23T08:15:40.581Z,100735.48
2018-04-23T08:20:43.075Z,100753.20
2018-04-23T08:25:45.547Z,100766.84
2018-04-23T08:30:48.940Z,100785.08
2018-04-23T08:35:51.413Z,100792.85
2018-04-23T08:40:53.906Z,100795.84
2018-04-23T08:45:56.370Z,100799.58
2018-04-23T08:50:59.571Z,100801.24
2018-04-23T08:56:02.072Z,100819.09
2018-04-23T09:01:04.603Z,100815.23
2018-04-23T09:06:07.082Z,100816.42
2018-04-23T09:11:09.657Z,100825.42
2018-04-23T09:16:12.160Z,100846.51
2018-04-23T09:21:14.716Z,100853.73
2018-04-23T09:26:17.196Z,100853.48
2018-04-23T09:31:19.667Z,100852.20
2018-04-23T09:36:22.149Z,100867.45
2018-04-23T09:41:24.606Z,100866.47
2018-04-23T09:46:27.067Z,100860.70
2018-04-23T09:51:29.606Z,100860.36
2018-04-23T09:56:32.082Z,100854.98
2018-04-23T10:01:34.566Z,100852.73
2018-04-23T10:06:37.466Z,100846.26
2018-04-23T10:11:39.969Z,100841.06
2018-04-23T10:16:42.472Z,100833.39
2018-04-23T10:21:45.786Z,100843.11
2018-04-23T10:26:48.309Z,100835.41
2018-04-23T10:31:50.789Z,100828.62
2018-04-23T10:36:53.253Z,100820.02
2018-04-23T10:41:55.881Z,100810.63
2018-04-23T10:46:58.355Z,100813.41
2018-04-23T10:52:00.800Z,100809.69
2018-04-23T10:57:03.230Z,100816.44
2018-04-23T11:02:05.697Z,100818.44
2018-04-23T11:07:08.253Z,100814.94
2018-04-23T11:12:10.771Z,100815.73
2018-04-23T11:17:13.266Z,100807.30
2018-04-23T11:22:15.732Z,100813.13
2018-04-23T11:27:18.178Z,100815.48
2018-04-23T11:37:46.397Z,100813.27
2018-04-23T11:42:48.896Z,100823.84
2018-04-23T11:47:51.402Z,100828.75
2018-04-23T11:52:53.885Z,100832.05
2018-04-23T11:57:56.420Z,100811.29
2018-04-23T12:02:58.942Z,100830.06
2018-04-23T12:08:01.648Z,100827.83
2018-04-23T12:13:04.141Z,100818.78
2018-04-23T12:18:06.626Z,100830.95
2018-04-23T12:23:09.172Z,100825.19
2018-04-23T12:28:11.742Z,100820.69
2018-04-23T12:33:14.256Z,100820.45
2018-04-23T12:38:16.724Z,100815.19
2018-04-23T12:43:19.226Z,100810.02
2018-04-23T12:48:21.702Z,100795.89
2018-04-23T12:53:24.286Z,100801.55
2018-04-23T12:58:26.878Z,100793.37
2018-04-23T13:03:29.476Z,100776.67
2018-04-23T13:08:32.040Z,100779.25
2018-04-23T13:13:34.642Z,100784.35
2018-04-23T13:18:37.228Z,100780.23
2018-04-23T13:23:39.770Z,100775.97
2018-04-23T13:28:42.362Z,100764.84
2018-04-23T13:33:44.895Z,100776.55
2018-04-23T13:38:47.895Z,100777.85
2018-04-23T13:43:50.479Z,100780.95
2018-04-23T13:48:53.013Z,100780.47
2018-04-23T13:53:55.677Z,100777.05
2018-04-23T13:58:58.290Z,100780.52
2018-04-23T14:04:00.871Z,100775.47
2018-04-23T14:09:03.817Z,100769.77
2018-04-23T14:14:06.671Z,100775.02
2018-04-23T14:19:09.300Z,100771.89
2018-04-23T14:24:12.066Z,100761.45
2018-04-23T14:29:14.721Z,100764.04
2018-04-23T14:34:17.520Z,100764.62
2018-04-23T14:39:20.012Z,100770.20
2018-04-23T14:44:22.607Z,100785.67
2018-04-23T14:49:25.213Z,100787.84
2018-04-23T14:54:27.878Z,100794.57
2018-04-23T14:59:30.406Z,100785.16
2018-04-23T15:04:32.882Z,100788.17
2018-04-23T15:09:35.357Z,100789.08
2018-04-23T15:14:37.938Z,100792.79
2018-04-23T15:19:40.529Z,100805.86
2018-04-23T15:24:43.073Z,100798.96
2018-04-23T15:29:45.539Z,100806.26
2018-04-23T15:34:48.003Z,100806.28
2018-04-23T15:39:50.498Z,100814.87
2018-04-23T15:44:52.963Z,100810.52
2018-04-23T15:49:55.433Z,100805.94
2018-04-23T15:54:57.887Z,100810.42
2018-04-23T16:00:00.687Z,100807.57
2018-04-23T16:05:03.239Z,100807.89
2018-04-23T16:10:05.920Z,100814.80
2018-04-23T16:15:08.693Z,100814.55
2018-04-23T16:20:12.963Z,100810.59
2018-04-23T16:25:15.462Z,100828.00
2018-04-23T16:30:18.036Z,100831.38
2018-04-23T16:35:20.757Z,100828.19
2018-04-23T16:40:23.212Z,100841.88
2018-04-23T16:45:28.358Z,100847.53
2018-04-23T16:50:30.825Z,100847.77
2018-04-23T16:55:33.389Z,100853.61
2018-04-23T17:00:36.021Z,100854.73
2018-04-23T17:05:38.512Z,100857.88
2018-04-23T17:10:41.023Z,100858.67
2018-04-23T17:15:43.565Z,100883.70
2018-04-23T17:20:46.099Z,100880.75
2018-04-23T17:25:48.576Z,100887.22
2018-04-23T17:30:51.939Z,100901.80
2018-04-23T17:35:54.457Z,100902.19
2018-04-23T17:40:56.955Z,100909.81
2018-04-23T17:45:59.534Z,100927.91
2018-04-23T17:51:02.234Z,100927.28
2018-04-23T17:56:04.836Z,100931.31
2018-04-23T18:01:07.519Z,100942.45
2018-04-23T18:06:10.217Z,100944.67
2018-04-23T18:11:12.743Z,100952.91
2018-04-23T18:16:15.410Z,100964.55
2018-04-23T18:21:17.862Z,100968.52
2018-04-23T18:26:20.444Z,100972.91
2018-04-23T18:31:23.089Z,100990.05
2018-04-23T18:36:25.544Z,100994.62
2018-04-23T18:41:29.956Z,100995.02
2018-04-23T18:46:34.629Z,100992.28
2018-04-23T18:51:39.000Z,100995.81
2018-04-23T18:56:44.142Z,101009.64
2018-04-23T19:01:48.527Z,101007.45
2018-04-23T19:06:52.383Z,101012.89
2018-04-23T19:11:57.962Z,101023.60
2018-04-23T19:17:03.823Z,101039.25
2018-04-23T19:22:09.401Z,101036.02
2018-04-23T19:27:13.882Z,101043.31
2018-04-23T19:32:16.636Z,101045.44
2018-04-23T19:37:19.292Z,101045.06
2018-04-23T19:42:21.783Z,101051.00
2018-04-23T19:47:24.267Z,101054.80
2018-04-23T19:52:26.742Z,101056.41
2018-04-23T19:57:29.243Z,101054.96
2018-04-23T20:02:31.704Z,101050.59
2018-04-23T20:07:34.197Z,101060.67
2018-04-23T20:12:37.009Z,101067.59
2018-04-23T20:17:39.771Z,101069.92
2018-04-23T20:22:42.577Z,101074.72
2018-04-23T20:27:46.199Z,101076.80
2018-04-23T20:32:49.091Z,101070.18
2018-04-23T20:37:51.549Z,101066.09
2018-04-23T20:42:53.996Z,101071.91
2018-04-23T20:47:57.246Z,101068.82
2018-04-23T20:52:59.811Z,101076.58
2018-04-23T20:58:02.275Z,101081.05
2018-04-23T21:03:04.768Z,101086.17
2018-04-23T21:08:07.575Z,101082.15
2018-04-23T21:13:10.211Z,101087.45
2018-04-23T21:18:12.841Z,101092.63
2018-04-23T21:23:15.353Z,101089.62
2018-04-23T21:28:17.849Z,101097.98
2018-04-23T21:33:20.329Z,101090.94
2018-04-23T21:38:22.793Z,101093.46
2018-04-23T21:43:25.259Z,101090.28
2018-04-23T21:48:27.719Z,101089.33
2018-04-23T21:53:30.178Z,101090.08
2018-04-23T21:58:32.907Z,101095.94
2018-04-23T22:03:35.396Z,101096.06
2018-04-23T22:08:38.279Z,101103.19
2018-04-23T22:13:40.818Z,101114.69
2018-04-23T22:18:43.367Z,101113.00
2018-04-23T22:23:45.941Z,101114.82
2018-04-23T22:28:48.404Z,101120.31
2018-04-23T22:33:50.882Z,101117.22
2018-04-23T22:38:53.424Z,101113.19
2018-04-23T22:43:55.931Z,101128.27
2018-04-23T22:48:58.437Z,101127.35
2018-04-23T22:54:01.896Z,101136.84
2018-04-23T22:59:04.371Z,101142.34
2018-04-23T23:04:07.035Z,101147.56
2018-04-23T23:09:10.089Z,101145.14
2018-04-23T23:14:12.577Z,101145.45
2018-04-23T23:19:15.087Z,101149.29
2018-04-23T23:24:17.590Z,101151.91
2018-04-23T23:29:20.082Z,101146.61
2018-04-23T23:34:22.548Z,101158.00
2018-04-23T23:39:25.018Z,101158.84
2018-04-23T23:44:27.510Z,101148.56
2018-04-23T23:49:29.986Z,101150.89
2018-04-23T23:54:32.454Z,101155.53
2018-04-23T23:59:34.988Z,101160.55
